sensor_id;sensor_type;location;lat;lon;timestamp;temperature;humidity
58638;DHT22;54976;51.510;7.522;2023-04-25T00:01:55;7.00;99.20
58638;DHT22;54976;51.510;7.522;2023-04-25T00:04:57;7.10;99.30
58638;DHT22;54976;51.510;7.522;2023-04-25T00:07:58;7.10;99.10
58638;DHT22;54976;51.510;7.522;2023-04-25T00:10:59;7.10;99.30
58638;DHT22;54976;51.510;7.522;2023-04-25T00:14:00;7.10;99.10
58638;DHT22;54976;51.510;7.522;2023-04-25T00:17:03;7.20;99.20
58638;DHT22;54976;51.510;7.522;2023-04-25T00:20:05;7.30;99.10
58638;DHT22;54976;51.510;7.522;2023-04-25T00:23:06;7.20;98.90
58638;DHT22;54976;51.510;7.522;2023-04-25T00:26:08;7.20;99.10
58638;DHT22;54976;51.510;7.522;2023-04-25T00:29:08;7.40;99.30
58638;DHT22;54976;51.510;7.522;2023-04-25T00:32:09;7.30;99.20
58638;DHT22;54976;51.510;7.522;2023-04-25T00:35:10;7.30;99.20
58638;DHT22;54976;51.510;7.522;2023-04-25T00:38:10;7.40;98.90
58638;DHT22;54976;51.510;7.522;2023-04-25T00:41:11;7.40;98.70
58638;DHT22;54976;51.510;7.522;2023-04-25T00:44:12;7.50;98.60
58638;DHT22;54976;51.510;7.522;2023-04-25T00:47:13;7.60;98.70
58638;DHT22;54976;51.510;7.522;2023-04-25T00:50:15;7.60;98.60
58638;DHT22;54976;51.510;7.522;2023-04-25T00:53:15;7.70;98.50
58638;DHT22;54976;51.510;7.522;2023-04-25T00:56:16;7.60;98.60
58638;DHT22;54976;51.510;7.522;2023-04-25T00:59:18;7.60;98.70
58638;DHT22;54976;51.510;7.522;2023-04-25T01:02:20;7.70;98.60
58638;DHT22;54976;51.510;7.522;2023-04-25T01:05:20;7.70;98.60
58638;DHT22;54976;51.510;7.522;2023-04-25T01:08:23;7.70;98.70
58638;DHT22;54976;51.510;7.522;2023-04-25T01:11:25;7.70;99.00
58638;DHT22;54976;51.510;7.522;2023-04-25T01:14:26;7.50;99.20
58638;DHT22;54976;51.510;7.522;2023-04-25T01:17:28;7.70;99.00
58638;DHT22;54976;51.510;7.522;2023-04-25T01:20:29;7.70;99.20
58638;DHT22;54976;51.510;7.522;2023-04-25T01:23:32;7.70;99.30
58638;DHT22;54976;51.510;7.522;2023-04-25T01:26:34;7.70;99.20
58638;DHT22;54976;51.510;7.522;2023-04-25T01:29:36;7.70;99.40
58638;DHT22;54976;51.510;7.522;2023-04-25T01:32:36;7.70;99.90
58638;DHT22;54976;51.510;7.522;2023-04-25T01:35:40;7.70;99.90
58638;DHT22;54976;51.510;7.522;2023-04-25T01:38:40;7.70;99.90
58638;DHT22;54976;51.510;7.522;2023-04-25T01:41:42;7.70;99.90
58638;DHT22;54976;51.510;7.522;2023-04-25T01:44:42;7.70;99.90
58638;DHT22;54976;51.510;7.522;2023-04-25T01:47:43;7.70;99.90
58638;DHT22;54976;51.510;7.522;2023-04-25T01:50:47;7.60;99.90
58638;DHT22;54976;51.510;7.522;2023-04-25T01:53:48;7.60;99.90
58638;DHT22;54976;51.510;7.522;2023-04-25T01:56:52;7.60;99.90
58638;DHT22;54976;51.510;7.522;2023-04-25T01:59:59;7.60;99.90
58638;DHT22;54976;51.510;7.522;2023-04-25T02:03:01;7.50;99.90
58638;DHT22;54976;51.510;7.522;2023-04-25T02:06:01;7.50;99.90
58638;DHT22;54976;51.510;7.522;2023-04-25T02:09:02;7.50;99.90
58638;DHT22;54976;51.510;7.522;2023-04-25T02:12:03;7.40;99.90
58638;DHT22;54976;51.510;7.522;2023-04-25T02:15:04;7.40;99.90
58638;DHT22;54976;51.510;7.522;2023-04-25T02:18:05;7.40;99.90
58638;DHT22;54976;51.510;7.522;2023-04-25T02:21:06;7.40;99.90
58638;DHT22;54976;51.510;7.522;2023-04-25T02:24:07;7.40;99.90
58638;DHT22;54976;51.510;7.522;2023-04-25T02:27:08;7.40;99.90
58638;DHT22;54976;51.510;7.522;2023-04-25T02:30:09;7.40;99.90
58638;DHT22;54976;51.510;7.522;2023-04-25T02:33:09;7.50;99.90
58638;DHT22;54976;51.510;7.522;2023-04-25T02:36:10;7.50;99.90
58638;DHT22;54976;51.510;7.522;2023-04-25T02:39:11;7.40;99.90
58638;DHT22;54976;51.510;7.522;2023-04-25T02:42:11;7.40;99.90
58638;DHT22;54976;51.510;7.522;2023-04-25T02:45:12;7.50;99.90
58638;DHT22;54976;51.510;7.522;2023-04-25T02:48:13;7.60;99.90
58638;DHT22;54976;51.510;7.522;2023-04-25T02:51:14;7.50;99.90
58638;DHT22;54976;51.510;7.522;2023-04-25T02:54:16;7.50;99.90
58638;DHT22;54976;51.510;7.522;2023-04-25T02:57:17;7.40;99.90
58638;DHT22;54976;51.510;7.522;2023-04-25T03:00:17;7.40;99.90
58638;DHT22;54976;51.510;7.522;2023-04-25T03:03:18;7.40;99.90
58638;DHT22;54976;51.510;7.522;2023-04-25T03:06:21;7.60;99.90
58638;DHT22;54976;51.510;7.522;2023-04-25T03:09:22;7.40;99.90
58638;DHT22;54976;51.510;7.522;2023-04-25T03:12:22;7.40;99.90
58638;DHT22;54976;51.510;7.522;2023-04-25T03:15:23;7.40;99.90
58638;DHT22;54976;51.510;7.522;2023-04-25T03:18:24;7.40;99.90
58638;DHT22;54976;51.510;7.522;2023-04-25T03:21:24;7.40;99.90
58638;DHT22;54976;51.510;7.522;2023-04-25T03:24:25;7.40;99.90
58638;DHT22;54976;51.510;7.522;2023-04-25T03:27:27;7.40;99.90
58638;DHT22;54976;51.510;7.522;2023-04-25T03:30:28;7.40;99.90
58638;DHT22;54976;51.510;7.522;2023-04-25T03:33:28;7.40;99.90
58638;DHT22;54976;51.510;7.522;2023-04-25T03:36:29;7.30;99.90
58638;DHT22;54976;51.510;7.522;2023-04-25T03:39:29;7.40;99.90
58638;DHT22;54976;51.510;7.522;2023-04-25T03:42:30;7.40;99.90
58638;DHT22;54976;51.510;7.522;2023-04-25T03:45:31;7.30;99.90
58638;DHT22;54976;51.510;7.522;2023-04-25T03:48:32;7.30;99.90
58638;DHT22;54976;51.510;7.522;2023-04-25T03:51:33;7.30;99.90
58638;DHT22;54976;51.510;7.522;2023-04-25T03:54:33;7.30;99.90
58638;DHT22;54976;51.510;7.522;2023-04-25T03:57:34;7.30;99.90
58638;DHT22;54976;51.510;7.522;2023-04-25T04:00:35;7.30;99.90
58638;DHT22;54976;51.510;7.522;2023-04-25T04:03:36;7.20;99.90
58638;DHT22;54976;51.510;7.522;2023-04-25T04:06:37;7.30;99.90
58638;DHT22;54976;51.510;7.522;2023-04-25T04:09:38;7.30;99.90
58638;DHT22;54976;51.510;7.522;2023-04-25T04:12:39;7.30;99.90
58638;DHT22;54976;51.510;7.522;2023-04-25T04:15:39;7.30;99.90
58638;DHT22;54976;51.510;7.522;2023-04-25T04:18:40;7.30;99.90
58638;DHT22;54976;51.510;7.522;2023-04-25T04:21:40;7.30;99.90
58638;DHT22;54976;51.510;7.522;2023-04-25T04:24:41;7.30;99.90
58638;DHT22;54976;51.510;7.522;2023-04-25T04:27:44;7.30;99.90
58638;DHT22;54976;51.510;7.522;2023-04-25T04:30:44;7.10;99.90
58638;DHT22;54976;51.510;7.522;2023-04-25T04:33:46;6.90;99.90
58638;DHT22;54976;51.510;7.522;2023-04-25T04:36:47;6.80;99.90
58638;DHT22;54976;51.510;7.522;2023-04-25T04:39:48;6.70;99.90
58638;DHT22;54976;51.510;7.522;2023-04-25T04:42:50;6.80;99.90
58638;DHT22;54976;51.510;7.522;2023-04-25T04:45:51;6.60;99.90
58638;DHT22;54976;51.510;7.522;2023-04-25T04:48:51;6.60;99.90
58638;DHT22;54976;51.510;7.522;2023-04-25T04:51:53;6.70;99.90
58638;DHT22;54976;51.510;7.522;2023-04-25T04:54:55;6.60;99.90
58638;DHT22;54976;51.510;7.522;2023-04-25T04:57:55;6.60;99.90
58638;DHT22;54976;51.510;7.522;2023-04-25T05:00:56;6.70;99.90
58638;DHT22;54976;51.510;7.522;2023-04-25T05:03:57;6.70;99.90
58638;DHT22;54976;51.510;7.522;2023-04-25T05:07:00;6.70;99.90
58638;DHT22;54976;51.510;7.522;2023-04-25T05:10:01;6.80;99.90
58638;DHT22;54976;51.510;7.522;2023-04-25T05:13:01;6.80;99.90
58638;DHT22;54976;51.510;7.522;2023-04-25T05:16:03;6.90;99.90
58638;DHT22;54976;51.510;7.522;2023-04-25T05:19:03;6.80;99.90
58638;DHT22;54976;51.510;7.522;2023-04-25T05:22:04;6.80;99.90
58638;DHT22;54976;51.510;7.522;2023-04-25T05:25:05;6.90;99.90
58638;DHT22;54976;51.510;7.522;2023-04-25T05:28:07;6.90;99.90
58638;DHT22;54976;51.510;7.522;2023-04-25T05:31:09;6.90;99.90
58638;DHT22;54976;51.510;7.522;2023-04-25T05:34:10;7.00;99.90
58638;DHT22;54976;51.510;7.522;2023-04-25T05:37:11;7.00;99.90
58638;DHT22;54976;51.510;7.522;2023-04-25T05:40:12;7.00;99.90
58638;DHT22;54976;51.510;7.522;2023-04-25T05:43:12;7.00;99.90
58638;DHT22;54976;51.510;7.522;2023-04-25T05:46:13;7.10;99.90
58638;DHT22;54976;51.510;7.522;2023-04-25T05:49:14;7.10;99.90
58638;DHT22;54976;51.510;7.522;2023-04-25T05:52:14;7.30;99.90
58638;DHT22;54976;51.510;7.522;2023-04-25T05:55:15;7.40;99.90
58638;DHT22;54976;51.510;7.522;2023-04-25T05:58:16;7.60;99.90
58638;DHT22;54976;51.510;7.522;2023-04-25T06:01:17;7.80;99.90
58638;DHT22;54976;51.510;7.522;2023-04-25T06:04:17;8.00;99.90
58638;DHT22;54976;51.510;7.522;2023-04-25T06:07:18;8.00;99.90
58638;DHT22;54976;51.510;7.522;2023-04-25T06:10:20;8.20;99.90
58638;DHT22;54976;51.510;7.522;2023-04-25T06:13:21;8.20;99.20
58638;DHT22;54976;51.510;7.522;2023-04-25T06:16:21;8.20;99.10
58638;DHT22;54976;51.510;7.522;2023-04-25T06:19:22;8.30;99.30
58638;DHT22;54976;51.510;7.522;2023-04-25T06:22:22;8.30;99.60
58638;DHT22;54976;51.510;7.522;2023-04-25T06:25:23;8.50;99.20
58638;DHT22;54976;51.510;7.522;2023-04-25T06:28:24;8.60;99.50
58638;DHT22;54976;51.510;7.522;2023-04-25T06:31:24;8.70;98.80
58638;DHT22;54976;51.510;7.522;2023-04-25T06:34:25;8.90;97.80
58638;DHT22;54976;51.510;7.522;2023-04-25T06:37:26;8.90;98.20
58638;DHT22;54976;51.510;7.522;2023-04-25T06:40:27;9.00;97.40
58638;DHT22;54976;51.510;7.522;2023-04-25T06:43:27;9.00;97.40
58638;DHT22;54976;51.510;7.522;2023-04-25T06:46:28;9.00;97.90
58638;DHT22;54976;51.510;7.522;2023-04-25T06:49:29;9.20;97.80
58638;DHT22;54976;51.510;7.522;2023-04-25T06:52:29;9.40;96.30
58638;DHT22;54976;51.510;7.522;2023-04-25T06:55:30;9.70;96.10
58638;DHT22;54976;51.510;7.522;2023-04-25T06:58:30;10.20;94.40
58638;DHT22;54976;51.510;7.522;2023-04-25T07:01:31;9.90;93.20
58638;DHT22;54976;51.510;7.522;2023-04-25T07:04:32;9.90;94.60
58638;DHT22;54976;51.510;7.522;2023-04-25T07:07:32;10.20;93.20
58638;DHT22;54976;51.510;7.522;2023-04-25T07:10:33;10.40;93.00
58638;DHT22;54976;51.510;7.522;2023-04-25T07:13:33;10.80;89.60
58638;DHT22;54976;51.510;7.522;2023-04-25T07:16:34;10.80;90.10
58638;DHT22;54976;51.510;7.522;2023-04-25T07:19:35;10.80;90.70
58638;DHT22;54976;51.510;7.522;2023-04-25T07:22:37;10.80;89.40
58638;DHT22;54976;51.510;7.522;2023-04-25T07:25:37;10.90;86.50
58638;DHT22;54976;51.510;7.522;2023-04-25T07:28:38;10.90;84.10
58638;DHT22;54976;51.510;7.522;2023-04-25T07:31:39;10.70;83.40
58638;DHT22;54976;51.510;7.522;2023-04-25T07:34:39;10.70;86.90
58638;DHT22;54976;51.510;7.522;2023-04-25T07:37:40;10.90;86.20
58638;DHT22;54976;51.510;7.522;2023-04-25T07:40:41;11.40;86.70
58638;DHT22;54976;51.510;7.522;2023-04-25T07:43:44;11.40;80.30
58638;DHT22;54976;51.510;7.522;2023-04-25T07:46:45;11.20;82.50
58638;DHT22;54976;51.510;7.522;2023-04-25T07:49:46;11.10;79.00
58638;DHT22;54976;51.510;7.522;2023-04-25T07:52:46;10.90;82.50
58638;DHT22;54976;51.510;7.522;2023-04-25T07:55:47;10.90;82.30
58638;DHT22;54976;51.510;7.522;2023-04-25T07:58:47;11.20;82.20
58638;DHT22;54976;51.510;7.522;2023-04-25T08:01:48;11.30;79.00
58638;DHT22;54976;51.510;7.522;2023-04-25T08:04:49;11.40;81.10
58638;DHT22;54976;51.510;7.522;2023-04-25T08:07:49;11.40;78.10
58638;DHT22;54976;51.510;7.522;2023-04-25T08:10:50;11.30;76.70
58638;DHT22;54976;51.510;7.522;2023-04-25T08:13:50;11.00;76.80
58638;DHT22;54976;51.510;7.522;2023-04-25T08:16:51;10.90;78.90
58638;DHT22;54976;51.510;7.522;2023-04-25T08:19:52;11.00;77.20
58638;DHT22;54976;51.510;7.522;2023-04-25T08:22:52;11.00;77.10
58638;DHT22;54976;51.510;7.522;2023-04-25T08:25:53;11.30;76.50
58638;DHT22;54976;51.510;7.522;2023-04-25T08:28:54;11.60;74.40
58638;DHT22;54976;51.510;7.522;2023-04-25T08:31:54;11.70;72.90
58638;DHT22;54976;51.510;7.522;2023-04-25T08:34:55;11.80;67.90
58638;DHT22;54976;51.510;7.522;2023-04-25T08:37:55;11.70;63.50
58638;DHT22;54976;51.510;7.522;2023-04-25T08:40:56;11.50;65.50
58638;DHT22;54976;51.510;7.522;2023-04-25T08:43:58;11.50;65.90
58638;DHT22;54976;51.510;7.522;2023-04-25T08:47:04;11.60;64.80
58638;DHT22;54976;51.510;7.522;2023-04-25T08:50:05;11.70;64.90
58638;DHT22;54976;51.510;7.522;2023-04-25T08:53:09;11.90;61.80
58638;DHT22;54976;51.510;7.522;2023-04-25T08:56:16;12.20;62.60
58638;DHT22;54976;51.510;7.522;2023-04-25T08:59:18;12.70;60.10
58638;DHT22;54976;51.510;7.522;2023-04-25T09:02:19;13.20;59.10
58638;DHT22;54976;51.510;7.522;2023-04-25T09:05:21;13.40;56.90
58638;DHT22;54976;51.510;7.522;2023-04-25T09:08:23;13.00;56.00
58638;DHT22;54976;51.510;7.522;2023-04-25T09:11:23;12.90;58.10
58638;DHT22;54976;51.510;7.522;2023-04-25T09:14:24;12.60;56.60
58638;DHT22;54976;51.510;7.522;2023-04-25T09:17:26;12.20;56.00
58638;DHT22;54976;51.510;7.522;2023-04-25T09:20:26;12.10;56.60
58638;DHT22;54976;51.510;7.522;2023-04-25T09:23:28;11.80;57.40
58638;DHT22;54976;51.510;7.522;2023-04-25T09:26:29;11.70;59.20
58638;DHT22;54976;51.510;7.522;2023-04-25T09:29:34;11.40;58.60
58638;DHT22;54976;51.510;7.522;2023-04-25T09:32:34;11.30;58.50
58638;DHT22;54976;51.510;7.522;2023-04-25T09:35:40;11.30;59.20
58638;DHT22;54976;51.510;7.522;2023-04-25T09:38:43;11.30;59.30
58638;DHT22;54976;51.510;7.522;2023-04-25T09:41:44;11.30;59.30
58638;DHT22;54976;51.510;7.522;2023-04-25T09:44:46;11.20;59.40
58638;DHT22;54976;51.510;7.522;2023-04-25T09:47:47;11.10;58.80
58638;DHT22;54976;51.510;7.522;2023-04-25T09:51:12;11.00;59.60
58638;DHT22;54976;51.510;7.522;2023-04-25T09:54:16;10.80;59.20
58638;DHT22;54976;51.510;7.522;2023-04-25T09:57:21;10.50;60.20
58638;DHT22;54976;51.510;7.522;2023-04-25T10:00:22;10.30;61.90
58638;DHT22;54976;51.510;7.522;2023-04-25T10:03:24;10.30;61.70
58638;DHT22;54976;51.510;7.522;2023-04-25T10:06:27;10.50;64.00
58638;DHT22;54976;51.510;7.522;2023-04-25T10:09:29;10.90;60.60
58638;DHT22;54976;51.510;7.522;2023-04-25T10:12:33;11.20;60.20
58638;DHT22;54976;51.510;7.522;2023-04-25T10:15:35;12.00;60.30
58638;DHT22;54976;51.510;7.522;2023-04-25T10:18:36;13.20;58.30
58638;DHT22;54976;51.510;7.522;2023-04-25T10:21:46;13.70;50.20
58638;DHT22;54976;51.510;7.522;2023-04-25T10:24:49;14.20;49.50
58638;DHT22;54976;51.510;7.522;2023-04-25T10:27:51;14.90;48.90
58638;DHT22;54976;51.510;7.522;2023-04-25T10:34:00;15.60;43.50
58638;DHT22;54976;51.510;7.522;2023-04-25T10:37:02;14.90;42.30
58638;DHT22;54976;51.510;7.522;2023-04-25T10:40:10;14.50;42.10
58638;DHT22;54976;51.510;7.522;2023-04-25T10:46:37;13.80;45.40
58638;DHT22;54976;51.510;7.522;2023-04-25T10:49:41;13.60;45.40
58638;DHT22;54976;51.510;7.522;2023-04-25T10:52:42;13.60;45.80
58638;DHT22;54976;51.510;7.522;2023-04-25T10:55:50;13.30;45.00
58638;DHT22;54976;51.510;7.522;2023-04-25T10:58:52;12.80;45.60
58638;DHT22;54976;51.510;7.522;2023-04-25T11:02:11;12.50;44.40
58638;DHT22;54976;51.510;7.522;2023-04-25T11:05:31;12.20;45.30
58638;DHT22;54976;51.510;7.522;2023-04-25T11:08:48;11.90;45.60
58638;DHT22;54976;51.510;7.522;2023-04-25T11:11:54;11.50;47.10
58638;DHT22;54976;51.510;7.522;2023-04-25T11:15:00;11.30;48.10
58638;DHT22;54976;51.510;7.522;2023-04-25T11:18:01;11.20;47.70
58638;DHT22;54976;51.510;7.522;2023-04-25T11:21:02;11.40;49.10
58638;DHT22;54976;51.510;7.522;2023-04-25T11:24:04;11.70;49.60
58638;DHT22;54976;51.510;7.522;2023-04-25T11:27:05;12.00;49.50
58638;DHT22;54976;51.510;7.522;2023-04-25T11:30:15;12.20;50.30
58638;DHT22;54976;51.510;7.522;2023-04-25T11:33:16;12.40;50.10
58638;DHT22;54976;51.510;7.522;2023-04-25T11:36:17;12.70;49.80
58638;DHT22;54976;51.510;7.522;2023-04-25T11:39:21;12.90;49.70
58638;DHT22;54976;51.510;7.522;2023-04-25T11:42:22;13.00;48.20
58638;DHT22;54976;51.510;7.522;2023-04-25T11:45:23;12.90;46.60
58638;DHT22;54976;51.510;7.522;2023-04-25T11:48:24;12.80;47.70
58638;DHT22;54976;51.510;7.522;2023-04-25T11:51:24;12.70;47.70
58638;DHT22;54976;51.510;7.522;2023-04-25T11:54:25;12.70;48.40
58638;DHT22;54976;51.510;7.522;2023-04-25T11:57:26;12.90;46.50
58638;DHT22;54976;51.510;7.522;2023-04-25T12:00:27;13.10;46.10
58638;DHT22;54976;51.510;7.522;2023-04-25T12:03:29;13.10;45.00
58638;DHT22;54976;51.510;7.522;2023-04-25T12:06:37;13.00;44.40
58638;DHT22;54976;51.510;7.522;2023-04-25T12:09:40;13.50;44.70
58638;DHT22;54976;51.510;7.522;2023-04-25T12:12:42;14.70;42.20
58638;DHT22;54976;51.510;7.522;2023-04-25T12:15:46;15.70;40.00
58638;DHT22;54976;51.510;7.522;2023-04-25T12:18:47;16.80;39.50
58638;DHT22;54976;51.510;7.522;2023-04-25T12:21:49;17.90;39.30
58638;DHT22;54976;51.510;7.522;2023-04-25T12:24:50;18.60;36.80
58638;DHT22;54976;51.510;7.522;2023-04-25T12:27:50;19.40;34.90
58638;DHT22;54976;51.510;7.522;2023-04-25T12:33:58;19.40;33.70
58638;DHT22;54976;51.510;7.522;2023-04-25T12:36:58;19.40;31.50
58638;DHT22;54976;51.510;7.522;2023-04-25T12:39:59;19.60;30.80
58638;DHT22;54976;51.510;7.522;2023-04-25T12:43:00;20.20;30.80
58638;DHT22;54976;51.510;7.522;2023-04-25T12:46:01;20.60;30.50
58638;DHT22;54976;51.510;7.522;2023-04-25T12:49:01;19.20;31.40
58638;DHT22;54976;51.510;7.522;2023-04-25T12:52:09;17.70;33.50
58638;DHT22;54976;51.510;7.522;2023-04-25T12:55:15;16.30;34.80
58638;DHT22;54976;51.510;7.522;2023-04-25T12:58:17;15.10;35.20
58638;DHT22;54976;51.510;7.522;2023-04-25T13:01:18;14.40;35.80
58638;DHT22;54976;51.510;7.522;2023-04-25T13:04:19;14.10;37.50
58638;DHT22;54976;51.510;7.522;2023-04-25T13:07:21;14.00;38.50
58638;DHT22;54976;51.510;7.522;2023-04-25T13:10:21;14.00;38.70
58638;DHT22;54976;51.510;7.522;2023-04-25T13:13:22;14.00;38.60
58638;DHT22;54976;51.510;7.522;2023-04-25T13:16:23;14.10;37.90
58638;DHT22;54976;51.510;7.522;2023-04-25T13:19:23;14.10;37.80
58638;DHT22;54976;51.510;7.522;2023-04-25T13:22:24;14.10;37.70
58638;DHT22;54976;51.510;7.522;2023-04-25T13:25:24;13.80;37.80
58638;DHT22;54976;51.510;7.522;2023-04-25T13:28:25;13.80;38.20
58638;DHT22;54976;51.510;7.522;2023-04-25T13:31:26;15.10;37.90
58638;DHT22;54976;51.510;7.522;2023-04-25T13:34:26;17.30;35.10
58638;DHT22;54976;51.510;7.522;2023-04-25T13:37:27;18.50;32.20
58638;DHT22;54976;51.510;7.522;2023-04-25T13:40:27;19.30;32.10
58638;DHT22;54976;51.510;7.522;2023-04-25T13:43:28;20.00;31.50
58638;DHT22;54976;51.510;7.522;2023-04-25T13:46:29;20.40;31.40
58638;DHT22;54976;51.510;7.522;2023-04-25T13:49:29;20.90;29.70
58638;DHT22;54976;51.510;7.522;2023-04-25T13:52:30;20.50;29.80
58638;DHT22;54976;51.510;7.522;2023-04-25T13:55:31;18.70;30.70
58638;DHT22;54976;51.510;7.522;2023-04-25T13:58:31;17.30;33.20
58638;DHT22;54976;51.510;7.522;2023-04-25T14:01:33;15.40;38.00
58638;DHT22;54976;51.510;7.522;2023-04-25T14:04:35;13.90;40.70
58638;DHT22;54976;51.510;7.522;2023-04-25T14:07:36;12.80;43.40
58638;DHT22;54976;51.510;7.522;2023-04-25T14:10:37;12.30;46.00
58638;DHT22;54976;51.510;7.522;2023-04-25T14:13:38;11.90;45.80
58638;DHT22;54976;51.510;7.522;2023-04-25T14:16:39;11.50;45.60
58638;DHT22;54976;51.510;7.522;2023-04-25T14:19:40;11.50;46.30
58638;DHT22;54976;51.510;7.522;2023-04-25T14:22:45;11.80;46.70
58638;DHT22;54976;51.510;7.522;2023-04-25T14:25:46;13.80;45.20
58638;DHT22;54976;51.510;7.522;2023-04-25T14:28:47;16.10;42.00
58638;DHT22;54976;51.510;7.522;2023-04-25T14:31:48;17.40;39.40
58638;DHT22;54976;51.510;7.522;2023-04-25T14:34:49;16.60;39.00
58638;DHT22;54976;51.510;7.522;2023-04-25T14:37:50;16.10;38.70
58638;DHT22;54976;51.510;7.522;2023-04-25T14:40:51;15.40;40.20
58638;DHT22;54976;51.510;7.522;2023-04-25T14:43:52;15.00;40.90
58638;DHT22;54976;51.510;7.522;2023-04-25T14:46:53;16.20;40.50
58638;DHT22;54976;51.510;7.522;2023-04-25T14:49:54;17.40;37.90
58638;DHT22;54976;51.510;7.522;2023-04-25T14:52:54;18.20;35.80
58638;DHT22;54976;51.510;7.522;2023-04-25T14:55:59;18.40;35.30
58638;DHT22;54976;51.510;7.522;2023-04-25T14:58:59;18.90;34.50
58638;DHT22;54976;51.510;7.522;2023-04-25T15:02:00;18.60;33.90
58638;DHT22;54976;51.510;7.522;2023-04-25T15:05:01;17.10;35.10
58638;DHT22;54976;51.510;7.522;2023-04-25T15:08:03;15.70;37.00
58638;DHT22;54976;51.510;7.522;2023-04-25T15:11:04;14.80;38.30
58638;DHT22;54976;51.510;7.522;2023-04-25T15:14:05;13.90;40.50
58638;DHT22;54976;51.510;7.522;2023-04-25T15:17:06;13.30;43.70
58638;DHT22;54976;51.510;7.522;2023-04-25T15:20:08;12.70;45.90
58638;DHT22;54976;51.510;7.522;2023-04-25T15:23:12;12.50;46.70
58638;DHT22;54976;51.510;7.522;2023-04-25T15:26:12;12.40;47.80
58638;DHT22;54976;51.510;7.522;2023-04-25T15:29:13;13.00;46.80
58638;DHT22;54976;51.510;7.522;2023-04-25T15:32:14;13.20;46.00
58638;DHT22;54976;51.510;7.522;2023-04-25T15:35:15;13.10;45.60
58638;DHT22;54976;51.510;7.522;2023-04-25T15:38:15;13.10;46.10
58638;DHT22;54976;51.510;7.522;2023-04-25T15:41:17;13.20;46.70
58638;DHT22;54976;51.510;7.522;2023-04-25T15:44:18;13.40;46.10
58638;DHT22;54976;51.510;7.522;2023-04-25T15:47:19;13.60;46.30
58638;DHT22;54976;51.510;7.522;2023-04-25T15:50:20;13.60;45.30
58638;DHT22;54976;51.510;7.522;2023-04-25T15:53:21;13.60;45.50
58638;DHT22;54976;51.510;7.522;2023-04-25T15:56:22;13.50;45.10
58638;DHT22;54976;51.510;7.522;2023-04-25T15:59:23;13.30;44.00
58638;DHT22;54976;51.510;7.522;2023-04-25T16:02:24;13.20;44.10
58638;DHT22;54976;51.510;7.522;2023-04-25T16:05:25;13.80;42.50
58638;DHT22;54976;51.510;7.522;2023-04-25T16:08:26;14.20;40.50
58638;DHT22;54976;51.510;7.522;2023-04-25T16:11:29;14.10;41.30
58638;DHT22;54976;51.510;7.522;2023-04-25T16:14:33;14.10;43.40
58638;DHT22;54976;51.510;7.522;2023-04-25T16:17:33;14.30;43.90
58638;DHT22;54976;51.510;7.522;2023-04-25T16:20:34;14.70;42.40
58638;DHT22;54976;51.510;7.522;2023-04-25T16:23:35;14.70;41.30
58638;DHT22;54976;51.510;7.522;2023-04-25T16:26:36;14.80;42.10
58638;DHT22;54976;51.510;7.522;2023-04-25T16:29:37;14.20;42.30
58638;DHT22;54976;51.510;7.522;2023-04-25T16:32:40;13.60;42.70
58638;DHT22;54976;51.510;7.522;2023-04-25T16:35:41;13.20;43.60
58638;DHT22;54976;51.510;7.522;2023-04-25T16:38:42;12.80;44.90
58638;DHT22;54976;51.510;7.522;2023-04-25T16:41:42;12.40;44.80
58638;DHT22;54976;51.510;7.522;2023-04-25T16:44:43;12.10;45.20
58638;DHT22;54976;51.510;7.522;2023-04-25T16:47:44;12.00;45.90
58638;DHT22;54976;51.510;7.522;2023-04-25T16:50:47;11.60;47.40
58638;DHT22;54976;51.510;7.522;2023-04-25T16:53:48;11.40;47.70
58638;DHT22;54976;51.510;7.522;2023-04-25T16:56:49;11.30;46.90
58638;DHT22;54976;51.510;7.522;2023-04-25T16:59:50;11.10;47.90
58638;DHT22;54976;51.510;7.522;2023-04-25T17:02:51;10.90;48.50
58638;DHT22;54976;51.510;7.522;2023-04-25T17:05:53;10.90;49.50
58638;DHT22;54976;51.510;7.522;2023-04-25T17:08:59;10.80;49.40
58638;DHT22;54976;51.510;7.522;2023-04-25T17:12:04;11.00;49.20
58638;DHT22;54976;51.510;7.522;2023-04-25T17:15:05;11.00;48.80
58638;DHT22;54976;51.510;7.522;2023-04-25T17:18:06;11.00;49.00
58638;DHT22;54976;51.510;7.522;2023-04-25T17:21:07;10.90;49.30
58638;DHT22;54976;51.510;7.522;2023-04-25T17:24:08;10.70;50.10
58638;DHT22;54976;51.510;7.522;2023-04-25T17:27:10;10.60;50.10
58638;DHT22;54976;51.510;7.522;2023-04-25T17:30:11;10.50;50.90
58638;DHT22;54976;51.510;7.522;2023-04-25T17:33:12;10.40;50.90
58638;DHT22;54976;51.510;7.522;2023-04-25T17:36:12;10.40;51.20
58638;DHT22;54976;51.510;7.522;2023-04-25T17:39:14;10.40;51.10
58638;DHT22;54976;51.510;7.522;2023-04-25T17:42:16;10.50;51.20
58638;DHT22;54976;51.510;7.522;2023-04-25T17:45:17;10.30;51.30
58638;DHT22;54976;51.510;7.522;2023-04-25T17:48:18;10.40;51.40
58638;DHT22;54976;51.510;7.522;2023-04-25T17:51:18;10.20;51.80
58638;DHT22;54976;51.510;7.522;2023-04-25T17:54:19;10.20;51.80
58638;DHT22;54976;51.510;7.522;2023-04-25T17:57:22;10.10;51.90
58638;DHT22;54976;51.510;7.522;2023-04-25T18:00:24;10.10;51.80
58638;DHT22;54976;51.510;7.522;2023-04-25T18:03:27;10.30;51.20
58638;DHT22;54976;51.510;7.522;2023-04-25T18:06:28;10.10;50.30
58638;DHT22;54976;51.510;7.522;2023-04-25T18:09:29;10.00;50.70
58638;DHT22;54976;51.510;7.522;2023-04-25T18:12:34;10.00;51.70
58638;DHT22;54976;51.510;7.522;2023-04-25T18:15:36;10.10;51.80
58638;DHT22;54976;51.510;7.522;2023-04-25T18:18:36;10.10;51.70
58638;DHT22;54976;51.510;7.522;2023-04-25T18:21:44;10.10;51.90
58638;DHT22;54976;51.510;7.522;2023-04-25T18:24:49;10.10;51.70
58638;DHT22;54976;51.510;7.522;2023-04-25T18:27:49;10.00;50.90
58638;DHT22;54976;51.510;7.522;2023-04-25T18:30:50;9.90;52.20
58638;DHT22;54976;51.510;7.522;2023-04-25T18:33:51;9.70;52.40
58638;DHT22;54976;51.510;7.522;2023-04-25T18:36:51;9.50;53.20
58638;DHT22;54976;51.510;7.522;2023-04-25T18:39:57;9.40;53.60
58638;DHT22;54976;51.510;7.522;2023-04-25T18:43:01;9.20;54.10
58638;DHT22;54976;51.510;7.522;2023-04-25T18:46:05;9.00;54.50
58638;DHT22;54976;51.510;7.522;2023-04-25T18:49:05;8.80;54.30
58638;DHT22;54976;51.510;7.522;2023-04-25T18:52:06;8.70;54.50
58638;DHT22;54976;51.510;7.522;2023-04-25T18:55:12;8.60;55.30
58638;DHT22;54976;51.510;7.522;2023-04-25T18:58:12;8.60;55.50
58638;DHT22;54976;51.510;7.522;2023-04-25T19:01:13;8.50;55.90
58638;DHT22;54976;51.510;7.522;2023-04-25T19:04:14;8.40;56.30
58638;DHT22;54976;51.510;7.522;2023-04-25T19:07:15;8.30;56.30
58638;DHT22;54976;51.510;7.522;2023-04-25T19:10:16;8.30;56.80
58638;DHT22;54976;51.510;7.522;2023-04-25T19:13:17;8.20;56.70
58638;DHT22;54976;51.510;7.522;2023-04-25T19:16:17;8.20;57.50
58638;DHT22;54976;51.510;7.522;2023-04-25T19:19:18;8.20;57.60
58638;DHT22;54976;51.510;7.522;2023-04-25T19:22:19;8.10;57.50
58638;DHT22;54976;51.510;7.522;2023-04-25T19:25:20;8.10;58.00